Boeing Field King County International Airport
KBFI : now visible

Airfield :











YOU CAN JOIN US ON...

 
LOGIN :

Register | Disclaimer

   EN    FR    IT 

 









Legend :    VFR   Marginal VFR   IFR   Intensive IFR   Very Intensive IFR
Visi :
Ceiling :
>= 8 km
>= 3000ft
5 to 8 km
1000 to 3000 ft
1500m to 5 km
500 to 1000 ft
800 to 1500m
200 to 500 ft
< 800m
< 200 ft
Symbols :   Thunderstorms  Fog  Heavy snow  Heavy precipitations  Wind > 20 kt







- Airport Elevation : 21 ft
- IATA code : BFI


KBFI - Boeing Field King County International

CURRENT METAR :
  • 260453Z 31004KT 10SM CLR 19/11 A3020 RMK AO2 SLP225 T01890111 $

EXPIRED METARs :
  • 260353Z 00000KT 10SM CLR 21/11 A3019 RMK AO2 SLP222 T02060106 $
  • 260253Z 31005KT 10SM FEW050 22/09 A3018 RMK AO2 SLP221 T02170089 53000 $

TAF KBFI
Valid from the 26 at 00:00 until the 27 at 00:00 UTC


252336Z 2600/2624 30004KT P6SM SCT050 SCT250
FM260600 VRB03KT P6SM FEW250
FM261800 32009KT P6SM SCT250
No reported NOTAMs for that airfield.



MET'MAP, your aeronautical weather chart ! - Copyright ORBIFLY December 2007 - Disclaimer

ORBIFLY MET'MAP TEAM :

Programming & Development : Alexandra Zaïnal
Concept & Development : Baudouin d'Aumeries
Co-Development & Prog : Marc-Olivier Méhu
Technical & hardware support : Manuel Goepfert

Contact : metmap@orbifly.com




SOURCES & CREDITS :

   NOAA       Earth
Advisory